Latest Weather Observations for Kempsey Airport

IDN60801

Issued at 5:05 pm EST Monday 1 September 2014 (issued every 30 minutes, with the page automatically refreshed every 10 minutes)

About weather observations | Map of weather stations | Latest weather observations for NSW | Other Formats
Station Details ID: 059007 Name: KEMPSEY AIRPORT AWS Lat: -31.07 Lon: 152.77 Height: 13.0 m
Data from the previous 72 hours. | See also: Recent months for locations in New South Wales
Date/Time
EST
Temp
°C
App
Temp
°C
Dew
Point
Rel
Hum
%
Delta-T
°C
Wind Press
QNH
hPa
Press
MSL
hPa
Rain
since 9 am
mm
Dir
 
Spd
km/h
Gust
km/h
Spd
kts
Gust
kts
01/05:00pm 20.2 18.1 13.6 66 3.8 ENE 17 24 9 13 1012.9 1012.9 0.0
01/04:30pm 20.9 18.9 12.8 60 4.6 ENE 15 24 8 13 1012.7 - 0.0
01/04:00pm 21.6 18.7 12.2 55 5.3 ENE 19 26 10 14 1012.4 1012.4 0.0
01/03:30pm 22.3 19.2 12.3 53 5.7 ENE 20 26 11 14 1012.5 - 0.0
01/03:00pm 22.9 19.8 12.2 51 6.1 ENE 20 30 11 16 1012.7 1012.7 0.0
01/02:30pm 23.6 20.4 12.0 48 6.6 ENE 20 30 11 16 1012.8 - 0.0
01/02:00pm 25.7 22.7 5.8 28 10.2 N 11 22 6 12 1013.1 1013.1 0.0
01/01:30pm 25.1 21.8 6.3 30 9.7 N 13 24 7 13 1013.6 - 0.0
01/01:00pm 24.9 22.5 8.8 36 8.7 W 11 24 6 13 1013.9 1013.9 0.0
01/12:30pm 24.5 21.9 7.6 34 8.9 WNW 11 19 6 10 1014.5 - 0.0
01/12:00pm 24.1 21.3 8.5 37 8.3 N 13 20 7 11 1015.2 1015.2 0.0
01/11:30am 23.0 21.2 10.8 46 6.8 NNE 11 20 6 11 1015.8 - 0.0
01/11:00am 22.0 20.0 11.4 51 5.9 N 13 17 7 9 1016.3 1016.3 0.0
01/10:30am 21.2 20.4 12.9 59 4.7 NNE 9 17 5 9 1016.8 - 0.0
01/10:00am 20.3 19.8 12.5 61 4.4 N 7 15 4 8 1017.5 1017.5 0.0
01/09:30am 19.2 19.1 13.4 69 3.3 W 6 11 3 6 1017.8 - 0.0
01/09:00am 17.4 16.5 12.7 74 2.6 W 9 11 5 6 1018.3 1018.3 0.0
01/08:30am 15.9 14.2 12.6 81 1.8 NW 13 17 7 9 1018.4 - 0.0
01/08:00am 14.5 13.3 12.9 90 0.9 NW 11 15 6 8 1018.5 1018.5 0.0
01/07:30am 12.9 12.8 12.1 95 0.4 W 4 9 2 5 1018.3 - 0.0
01/07:00am 10.9 11.0 10.0 94 0.5 CALM 0 0 0 0 1018.1 1018.1 0.0
01/06:30am 9.9 9.7 9.0 94 0.4 CALM 0 0 0 0 1017.9 - 0.0
01/06:00am 9.5 9.2 8.6 94 0.4 CALM 0 0 0 0 1017.9 1017.9 0.0
01/05:30am 9.3 8.9 8.2 93 0.5 CALM 0 0 0 0 1017.5 - 0.0
01/05:00am 9.5 9.1 8.4 93 0.5 CALM 0 0 0 0 1017.4 1017.4 0.0
01/04:30am 9.3 8.9 8.2 93 0.5 CALM 0 0 0 0 1017.3 - 0.0
01/04:00am 9.7 9.4 8.6 93 0.5 CALM 0 0 0 0 1017.1 1017.1 0.0
01/03:30am 9.9 9.6 8.8 93 0.5 CALM 0 0 0 0 1017.1 - 0.0
01/03:00am 10.6 10.1 9.5 93 0.5 W 2 6 1 3 1017.2 1017.2 0.0
01/02:30am 10.9 9.8 9.8 93 0.6 WSW 6 9 3 5 1017.4 - 0.0
01/02:00am 11.0 9.8 9.6 91 0.7 SW 6 7 3 4 1017.7 1017.7 0.0
01/01:30am 11.9 11.0 10.5 91 0.7 SW 6 7 3 4 1018.0 - 0.0
01/01:00am 12.1 11.6 10.8 92 0.7 W 4 7 2 4 1018.2 1018.2 0.0
01/12:30am 12.4 11.6 11.1 92 0.7 SW 6 7 3 4 1018.3 - 0.0
01/12:00am 11.6 10.3 10.0 90 0.8 WSW 7 9 4 5 1018.4 1018.4 0.0
 
Date/Time
EST
Temp
°C
App
Temp
°C
Dew
Point
Rel
Hum
%
Delta-T
°C
Wind Press
QNH
hPa
Press
MSL
hPa
Rain
since 9 am
mm
Dir
 
Spd
km/h
Gust
km/h
Spd
kts
Gust
kts
31/11:30pm 12.6 11.6 11.0 90 0.8 WSW 7 9 4 5 1018.4 - 0.0
31/11:00pm 12.8 12.4 11.0 89 0.9 W 4 7 2 4 1018.5 1018.5 0.0
31/10:30pm 12.9 12.0 11.3 90 0.8 WSW 7 9 4 5 1018.5 - 0.0
31/10:00pm 13.2 13.6 11.4 89 1.0 CALM 0 0 0 0 1018.7 1018.7 0.0
31/09:30pm 13.3 12.6 11.4 88 1.0 WNW 6 9 3 5 1018.9 - 0.0
31/09:00pm 13.4 12.7 11.3 87 1.1 W 6 7 3 4 1018.8 1018.8 0.0
31/08:30pm 13.8 14.0 12.0 89 1.0 SW 2 9 1 5 1018.6 - 0.0
31/08:00pm 13.7 13.5 11.7 88 1.1 NNW 4 7 2 4 1018.6 1018.6 0.0
31/07:30pm 14.0 14.1 11.5 85 1.3 NW 2 6 1 3 1018.4 - 0.0
31/07:00pm 14.8 13.9 11.2 79 1.9 S 7 9 4 5 1018.1 1018.1 0.0
31/06:30pm 16.3 15.2 12.1 76 2.3 SSE 9 15 5 8 1017.5 - 0.0
31/06:00pm 16.7 14.9 12.0 74 2.6 SSE 13 17 7 9 1017.2 1017.2 0.0
31/05:30pm 17.7 15.5 12.2 70 3.0 SE 15 20 8 11 1016.7 - 0.0
31/05:00pm 18.5 16.0 12.3 67 3.4 SE 17 24 9 13 1016.5 1016.5 0.0
31/04:30pm 20.3 17.6 11.8 58 4.7 SE 17 24 9 13 1016.1 - 0.0
31/04:00pm 20.6 18.2 11.5 56 5.0 SE 15 20 8 11 1015.9 1015.9 0.0
31/03:30pm 21.2 17.5 9.4 47 6.3 S 19 24 10 13 1015.8 - 0.0
31/03:00pm 22.5 19.2 9.6 44 7.0 S 17 26 9 14 1015.9 1015.9 0.0
31/02:30pm 22.1 18.3 9.9 46 6.6 S 20 28 11 15 1016.1 - 0.0
31/02:00pm 22.4 18.6 9.9 45 6.8 S 20 28 11 15 1016.2 1016.2 0.0
31/01:30pm 22.8 19.9 9.6 43 7.1 S 15 22 8 12 1016.4 - 0.0
31/01:00pm 23.5 19.8 10.2 43 7.3 SSW 20 28 11 15 1016.7 1016.7 0.0
31/12:30pm 22.4 18.9 10.2 46 6.7 SSW 19 33 10 18 1017.0 - 0.0
31/12:00pm 22.0 17.7 9.5 45 6.7 SW 22 30 12 16 1017.4 1017.4 0.0
31/11:30am 21.6 17.8 9.8 47 6.4 SSW 20 32 11 17 1017.8 - 0.0
31/11:00am 21.1 17.2 10.9 52 5.6 SSW 22 35 12 19 1018.2 1018.2 0.0
31/10:30am 21.6 17.9 11.6 53 5.6 S 22 32 12 17 1018.7 - 0.0
31/10:00am 20.4 16.9 10.8 54 5.2 SW 20 28 11 15 1019.1 1019.1 0.0
31/09:30am 20.1 15.7 10.5 54 5.2 SW 24 32 13 17 1019.4 - 0.0
31/09:00am 19.0 15.5 10.8 59 4.4 SW 20 30 11 16 1019.5 1019.5 0.0
31/08:30am 18.4 16.9 11.9 66 3.6 SW 11 17 6 9 1019.5 - 0.0
31/08:00am 16.3 14.5 10.8 70 2.9 W 11 13 6 7 1019.5 1019.5 0.0
31/07:30am 14.4 13.4 10.4 77 2.1 NW 6 9 3 5 1019.3 - 0.0
31/07:00am 11.7 10.6 9.9 89 0.9 NW 6 9 3 5 1019.1 1019.1 0.0
31/06:30am 10.2 9.8 8.1 87 1.0 CALM 0 6 0 3 1019.0 - 0.0
31/06:00am 11.2 8.9 9.1 87 1.0 WNW 11 15 6 8 1018.7 1018.7 0.0
31/05:30am 11.1 8.7 8.8 86 1.1 WNW 11 13 6 7 1018.5 - 0.0
31/05:00am 11.4 9.1 9.0 85 1.2 WNW 11 15 6 8 1018.2 1018.2 0.0
31/04:30am 11.3 8.6 9.0 86 1.1 WNW 13 17 7 9 1018.3 - 0.0
31/04:00am 11.7 9.9 9.4 86 1.2 WNW 9 15 5 8 1018.1 1018.1 0.0
31/03:30am 11.2 9.3 9.1 87 1.0 WNW 9 11 5 6 1018.1 - 0.0
31/03:00am 11.8 11.2 9.0 83 1.4 WNW 2 7 1 4 1018.1 1018.1 0.0
31/02:30am 12.1 10.7 8.9 81 1.6 W 6 9 3 5 1018.3 - 0.0
31/02:00am 12.8 10.3 9.6 81 1.6 WSW 13 13 7 7 1018.1 1018.1 0.0
31/01:30am 13.1 10.9 9.4 78 1.9 WSW 11 13 6 7 1018.4 - 0.0
31/01:00am 13.7 11.2 9.6 76 2.1 WSW 13 17 7 9 1018.4 1018.4 0.0
31/12:30am 13.8 11.2 9.5 75 2.2 SW 13 17 7 9 1018.7 - 0.0
31/12:00am 15.0 12.3 10.4 74 2.4 SW 15 26 8 14 1018.8 1018.8 0.0
 
Date/Time
EST
Temp
°C
App
Temp
°C
Dew
Point
Rel
Hum
%
Delta-T
°C
Wind Press
QNH
hPa
Press
MSL
hPa
Rain
since 9 am
mm
Dir
 
Spd
km/h
Gust
km/h
Spd
kts
Gust
kts
30/11:30pm 14.1 11.9 9.5 74 2.4 SW 11 15 6 8 1018.8 - 0.0
30/11:00pm 15.4 13.1 10.4 72 2.6 SW 13 15 7 8 1019.0 1019.0 0.0
30/10:30pm 14.4 12.4 10.0 75 2.3 SW 11 17 6 9 1018.9 - 0.0
30/10:00pm 14.2 11.7 9.8 75 2.3 SW 13 15 7 8 1019.0 1019.0 0.0
30/09:30pm 13.0 11.1 9.1 77 2.0 WSW 9 13 5 7 1019.0 - 0.0
30/09:00pm 13.9 12.2 9.9 77 2.1 SW 9 13 5 7 1019.1 1019.1 0.0
30/08:30pm 13.8 12.0 9.3 74 2.3 SW 9 11 5 6 1019.1 - 0.0
30/08:00pm 14.6 12.1 9.6 72 2.6 WSW 13 17 7 9 1018.9 1018.9 0.0
30/07:30pm 15.3 12.1 10.1 71 2.7 WSW 17 26 9 14 1018.9 - 0.0
30/07:00pm 14.5 12.1 9.9 74 2.4 WSW 13 17 7 9 1018.9 1018.9 0.0
30/06:30pm 14.8 12.7 9.6 71 2.7 WSW 11 15 6 8 1018.6 - 0.0
30/06:00pm 15.9 13.1 10.0 68 3.1 SW 15 20 8 11 1018.5 1018.5 0.0
30/05:30pm 17.2 13.7 10.1 63 3.8 SSW 19 32 10 17 1018.6 - 0.0
30/05:00pm 18.0 13.7 10.6 62 4.0 SSW 24 35 13 19 1018.4 1018.4 0.0
30/04:30pm 18.5 14.9 10.6 60 4.3 SSW 20 32 11 17 1018.0 - 0.0
30/04:00pm 19.0 13.4 10.3 57 4.7 SW 30 39 16 21 1017.8 1017.8 0.0
30/03:30pm 19.5 13.6 10.5 56 4.9 SW 32 43 17 23 1017.7 - 0.0
30/03:00pm 20.4 14.7 11.3 56 5.0 SSW 32 44 17 24 1017.7 1017.7 0.0
30/02:30pm 20.4 14.6 10.8 54 5.2 SW 32 44 17 24 1017.8 - 0.0
30/02:00pm 21.0 15.3 11.1 53 5.4 SSW 32 43 17 23 1017.9 1017.9 0.0
30/01:30pm 20.4 15.3 10.5 53 5.4 SW 28 37 15 20 1018.2 - 0.0
30/01:13pm 20.1 15.2 11.3 57 4.8 SW 28 46 15 25 1018.4 - 0.0
30/01:00pm 20.1 14.6 10.5 54 5.2 SSW 30 46 16 25 1018.6 1018.6 0.0
30/12:30pm 20.3 13.9 10.7 54 5.2 SW 35 44 19 24 1018.6 - 0.0
30/12:00pm 19.8 14.6 11.6 59 4.5 SW 30 43 16 23 1018.9 1018.9 0.0
30/11:30am 19.9 14.1 10.9 56 4.9 SW 32 44 17 24 1019.2 - 0.0
30/11:00am 19.4 13.7 11.2 59 4.5 SW 32 43 17 23 1019.6 1019.6 0.0
30/10:30am 18.6 13.6 10.9 61 4.2 SSW 28 46 15 25 1019.8 - 0.0
30/10:26am 18.4 13.4 11.0 62 4.0 SSW 28 46 15 25 1019.8 - 0.0
30/10:00am 19.0 13.2 10.8 59 4.4 SW 32 43 17 23 1019.9 1019.9 0.0
30/09:30am 17.8 12.1 9.9 60 4.2 SW 30 46 16 25 1020.0 - 0.0
30/09:00am 17.7 11.8 10.3 62 3.9 SW 32 43 17 23 1020.0 1020.0 0.2
30/08:30am 17.5 12.7 10.4 63 3.8 SW 26 35 14 19 1020.0 - 0.2
30/08:00am 15.8 10.2 10.1 69 3.0 SW 30 41 16 22 1020.1 1020.1 0.2
30/07:30am 15.8 10.3 9.2 65 3.4 SW 28 41 15 22 1019.8 - 0.2
30/07:00am 15.1 9.1 8.8 66 3.2 SW 30 39 16 21 1019.6 1019.6 0.2
30/06:30am 14.9 10.4 8.4 65 3.3 SW 22 35 12 19 1019.1 - 0.2
30/06:00am 14.8 9.5 8.3 65 3.3 SW 26 37 14 20 1018.6 1018.6 0.2
30/05:30am 14.6 8.4 7.9 64 3.3 SW 30 44 16 24 1018.4 - 0.2
30/05:05am 15.0 8.8 8.0 63 3.5 SW 30 48 16 26 1018.2 - 0.2
30/05:00am 14.8 9.0 7.8 63 3.5 SW 28 41 15 22 1018.2 1018.2 0.2
30/04:30am 14.6 8.7 7.4 62 3.5 SW 28 39 15 21 1018.1 - 0.2
30/04:00am 13.9 8.6 6.7 62 3.5 WSW 24 35 13 19 1018.0 1018.0 0.2
30/03:30am 13.8 8.8 6.4 61 3.5 SW 22 33 12 18 1018.2 - 0.2
30/03:00am 14.3 8.6 6.6 60 3.7 SW 26 41 14 22 1018.0 1018.0 0.2
30/02:30am 13.6 8.9 6.2 61 3.5 SW 20 32 11 17 1018.5 - 0.2
30/02:00am 13.5 9.0 5.9 60 3.6 WSW 19 28 10 15 1018.6 1018.6 0.2
30/01:30am 13.6 8.4 5.5 58 3.8 SW 22 30 12 16 1018.8 - 0.2
30/01:00am 13.9 8.7 5.3 56 4.0 WSW 22 33 12 18 1019.2 1019.2 0.2
30/12:30am 13.8 8.2 5.2 56 4.0 WSW 24 33 13 18 1019.5 - 0.2
30/12:00am 13.5 8.6 5.2 57 3.9 WSW 20 26 11 14 1019.8 1019.8 0.2
 
Date/Time
EST
Temp
°C
App
Temp
°C
Dew
Point
Rel
Hum
%
Delta-T
°C
Wind Press
QNH
hPa
Press
MSL
hPa
Rain
since 9 am
mm
Dir
 
Spd
km/h
Gust
km/h
Spd
kts
Gust
kts
29/11:30pm 13.6 8.7 5.0 56 4.0 WSW 20 32 11 17 1020.2 - 0.2
29/11:00pm 13.9 9.0 5.0 55 4.1 WSW 20 32 11 17 1020.3 1020.3 0.2
29/10:30pm 13.4 7.8 5.6 59 3.7 SW 24 33 13 18 1020.5 - 0.2
29/10:00pm 13.5 8.9 6.6 63 3.3 SW 20 30 11 16 1020.8 1020.8 0.2
29/09:30pm 13.4 8.8 6.7 64 3.2 SW 20 28 11 15 1021.1 - 0.2
29/09:00pm 12.6 8.7 6.9 68 2.7 WSW 17 22 9 12 1021.3 1021.3 0.2
29/08:30pm 13.7 9.3 7.2 65 3.2 SW 20 30 11 16 1021.4 - 0.2
29/08:00pm 13.8 9.6 7.3 65 3.2 SW 19 26 10 14 1021.6 1021.6 0.2
29/07:30pm 14.2 9.8 7.5 64 3.3 SW 20 30 11 16 1021.6 - 0.2
29/07:00pm 14.7 9.9 7.3 61 3.6 SW 22 32 12 17 1021.6 1021.6 0.2
29/06:30pm 15.5 10.6 7.0 57 4.2 SW 22 35 12 19 1021.3 - 0.2
29/06:00pm 14.5 10.9 6.6 59 3.8 SW 15 19 8 10 1020.8 1020.8 0.2
29/05:30pm 14.8 10.3 5.9 55 4.3 SW 19 28 10 15 1020.4 - 0.2

Other Formats:

Comma delimited format used in spreadsheet applications
http://www.bom.gov.au/fwo/IDN60801/IDN60801.94785.axf

JavaScript Object Notation format (JSON) in row-major order
http://www.bom.gov.au/fwo/IDN60801/IDN60801.94785.json